This is the latest recevied weather packets stored in our database for station/object WR9A-13. If no packets are shown the sender has not sent any weather packets the latest 10 day(s).
| Time | Temp. | Humidity | Pressure | Rain* | Wind** | Luminosity | Snow |
|---|---|---|---|---|---|---|---|
| 1787782829 | 26.11° C | 82% | 1013 hPa | 0 mm | - | - | - |
| 1787782527 | 26.11° C | 85% | 1013.1 hPa | 0 mm | - | - | - |
| 1787782214 | 25.56° C | 86% | 1013.1 hPa | 0 mm | - | - | - |
| 1787781931 | 25.56° C | 86% | 1013 hPa | 0 mm | - | - | - |
| 1787781642 | 25° C | 88% | 1012.9 hPa | 0 mm | - | - | - |
| 1787781329 | 25° C | 90% | 1013 hPa | 0 mm | - | - | - |
| 1787781017 | 24.44° C | 90% | 1013 hPa | 0 mm | - | - | - |
| 1787780729 | 24.44° C | 91% | 1013 hPa | 0.25 mm | - | - | - |
| 1787780417 | 24.44° C | 92% | 1013.1 hPa | 0.76 mm | - | - | - |
| 1787780115 | 24.44° C | 93% | 1013.2 hPa | 8.38 mm | - | - | - |
| 1787779822 | 24.44° C | 94% | 1013.2 hPa | 11.94 mm | - | - | - |
| 1787779520 | 23.89° C | 94% | 1013.3 hPa | 13.46 mm | - | - | - |
| 1787779238 | 23.89° C | 94% | 1013.4 hPa | 13.46 mm | - | - | - |
| 1787778927 | 23.33° C | 93% | 1013.4 hPa | 13.46 mm | - | - | - |
| 1787778615 | 23.33° C | 92% | 1013.4 hPa | 13.46 mm | - | - | - |
| 1787778332 | 23.33° C | 93% | 1013.4 hPa | 13.46 mm | - | - | - |
| 1787778023 | 23.33° C | 93% | 1013.3 hPa | 13.46 mm | - | - | - |
| 1787777731 | 22.78° C | 91% | 1013.3 hPa | 13.46 mm | - | - | - |
| 1787777428 | 22.78° C | 90% | 1013.6 hPa | 13.46 mm | - | - | - |
| 1787777115 | 22.78° C | 89% | 1013.5 hPa | 13.21 mm | - | - | - |
| 1787776832 | 23.33° C | 86% | 1013.8 hPa | 12.7 mm | - | - | - |
| 1787776522 | 24.44° C | 83% | 1014.3 hPa | 5.08 mm | - | - | - |
| 1787776218 | 26.11° C | 79% | 1013.6 hPa | 1.52 mm | - | - | - |
| 1787775925 | 27.78° C | 73% | 1013.8 hPa | 0 mm | - | - | - |
| 1787775622 | 28.89° C | 72% | 1013.5 hPa | 0 mm | - | - | - |
* Rain latest hour (hover to see other rain measurements)
** Current wind speed in m/s (hover to see current wind gust speed)